createdAt,value
2018-06-28T00:00:51.024Z,101320.00
2018-06-28T00:03:21.314Z,101324.00
2018-06-28T00:05:51.509Z,101322.00
2018-06-28T00:08:21.864Z,101329.00
2018-06-28T00:10:52.928Z,101327.00
2018-06-28T00:13:24.117Z,101339.00
2018-06-28T00:15:54.527Z,101331.00
2018-06-28T00:18:24.779Z,101324.00
2018-06-28T00:20:55.349Z,101324.00
2018-06-28T00:23:25.604Z,101332.00
2018-06-28T00:25:56.167Z,101312.00
2018-06-28T00:28:26.364Z,101316.00
2018-06-28T00:30:56.991Z,101316.00
2018-06-28T00:33:27.772Z,101310.00
2018-06-28T00:35:58.249Z,101319.00
2018-06-28T00:38:28.232Z,101313.00
2018-06-28T00:40:59.668Z,101315.00
2018-06-28T00:43:29.684Z,101316.00
2018-06-28T00:46:00.473Z,101310.00
2018-06-28T00:48:30.488Z,101314.00
2018-06-28T00:51:00.791Z,101320.00
2018-06-28T00:53:30.918Z,101316.00
2018-06-28T00:56:01.333Z,101311.00
2018-06-28T00:58:31.629Z,101306.00
2018-06-28T01:01:01.890Z,101307.00
2018-06-28T01:03:32.337Z,101302.00
2018-06-28T01:06:02.885Z,101301.00
2018-06-28T01:08:33.311Z,101303.00
2018-06-28T01:11:03.703Z,101296.00
2018-06-28T01:13:34.020Z,101303.00
2018-06-28T01:16:04.190Z,101304.00
2018-06-28T01:18:34.562Z,101290.00
2018-06-28T01:21:05.288Z,101303.00
2018-06-28T01:23:35.431Z,101303.00
2018-06-28T01:26:06.299Z,101304.00
2018-06-28T01:28:36.825Z,101301.00
2018-06-28T01:31:07.254Z,101298.00
2018-06-28T01:33:37.727Z,101293.00
2018-06-28T01:36:08.277Z,101294.00
2018-06-28T01:38:38.623Z,101303.00
2018-06-28T01:41:08.927Z,101298.00
2018-06-28T01:43:46.137Z,101303.00
2018-06-28T01:46:17.709Z,101299.00
2018-06-28T01:48:47.856Z,101305.00
2018-06-28T01:51:17.957Z,101304.00
2018-06-28T01:53:48.191Z,101298.00
2018-06-28T01:56:18.651Z,101306.00
2018-06-28T01:58:49.001Z,101298.00
2018-06-28T02:01:19.214Z,101295.00
2018-06-28T02:03:49.605Z,101294.00
2018-06-28T02:06:20.254Z,101289.00
2018-06-28T02:08:51.129Z,101291.00
2018-06-28T02:11:21.394Z,101299.00
2018-06-28T02:13:51.846Z,101304.00
2018-06-28T02:16:22.423Z,101298.00
2018-06-28T02:18:52.649Z,101302.00
2018-06-28T02:21:23.426Z,101299.00
2018-06-28T02:23:54.017Z,101303.00
2018-06-28T02:26:24.480Z,101299.00
2018-06-28T02:28:54.732Z,101296.00
2018-06-28T02:31:24.937Z,101312.00
2018-06-28T02:33:55.253Z,101297.00
2018-06-28T02:36:25.316Z,101307.00
2018-06-28T02:38:55.614Z,101305.00
2018-06-28T02:41:25.738Z,101310.00
2018-06-28T02:43:56.326Z,101300.00
2018-06-28T02:46:26.761Z,101303.00
2018-06-28T02:48:57.061Z,101305.00
2018-06-28T02:51:27.644Z,101305.00
2018-06-28T02:53:57.795Z,101308.00
2018-06-28T02:56:28.610Z,101299.00
2018-06-28T02:58:58.818Z,101297.00
2018-06-28T03:01:28.733Z,101299.00
2018-06-28T03:03:59.191Z,101304.00
2018-06-28T03:06:29.218Z,101297.00
2018-06-28T03:09:00.210Z,101293.00
2018-06-28T03:11:30.533Z,101301.00
2018-06-28T03:14:00.940Z,101299.00
2018-06-28T03:16:31.407Z,101289.00
2018-06-28T03:19:01.895Z,101294.00
2018-06-28T03:21:38.913Z,101292.00
2018-06-28T03:24:09.601Z,101294.00
2018-06-28T03:26:39.871Z,101289.00
2018-06-28T03:29:10.197Z,101299.00
2018-06-28T03:31:40.534Z,101297.00
2018-06-28T03:34:11.317Z,101301.00
2018-06-28T03:36:41.787Z,101292.00
2018-06-28T03:39:14.158Z,101294.00
2018-06-28T03:41:44.494Z,101297.00
2018-06-28T03:44:14.900Z,101292.00
2018-06-28T03:46:45.134Z,101292.00
2018-06-28T03:49:15.310Z,101286.00
2018-06-28T03:51:45.532Z,101297.00
2018-06-28T03:54:15.861Z,101297.00
2018-06-28T03:56:46.023Z,101290.00
2018-06-28T03:59:16.551Z,101291.00
2018-06-28T04:01:46.723Z,101300.00
2018-06-28T04:04:17.171Z,101291.00
2018-06-28T04:06:47.453Z,101308.00
2018-06-28T04:09:18.019Z,101301.00
2018-06-28T04:11:48.180Z,101307.00
2018-06-28T04:14:18.464Z,101313.00
2018-06-28T04:16:48.941Z,101303.00
2018-06-28T04:19:18.902Z,101319.00
2018-06-28T04:21:49.254Z,101314.00
2018-06-28T04:24:19.408Z,101307.00
2018-06-28T04:26:49.897Z,101312.00
2018-06-28T04:29:20.180Z,101321.00
2018-06-28T04:31:50.289Z,101312.00
2018-06-28T04:34:20.549Z,101316.00
2018-06-28T04:36:51.754Z,101316.00
2018-06-28T04:39:22.159Z,101314.00
2018-06-28T04:41:52.623Z,101315.00
2018-06-28T04:44:22.985Z,101315.00
2018-06-28T04:46:53.639Z,101320.00
2018-06-28T04:49:23.861Z,101317.00
2018-06-28T04:51:54.085Z,101312.00
2018-06-28T04:54:24.556Z,101329.00
2018-06-28T04:56:55.113Z,101319.00
2018-06-28T04:59:25.423Z,101323.00
2018-06-28T05:01:55.474Z,101315.00
2018-06-28T05:04:25.856Z,101318.00
2018-06-28T05:06:56.008Z,101320.00
2018-06-28T05:09:26.346Z,101318.00
2018-06-28T05:11:56.720Z,101326.00
2018-06-28T05:14:26.843Z,101326.00
2018-06-28T05:16:57.738Z,101325.00
2018-06-28T05:19:27.888Z,101326.00
2018-06-28T05:21:58.146Z,101326.00
2018-06-28T05:24:29.005Z,101318.00
2018-06-28T05:26:59.179Z,101320.00
2018-06-28T05:29:29.651Z,101326.00
2018-06-28T05:31:59.652Z,101327.00
2018-06-28T05:34:29.846Z,101328.00
2018-06-28T05:37:00.147Z,101331.00
2018-06-28T05:39:30.870Z,101326.00
2018-06-28T05:42:01.134Z,101323.00
2018-06-28T05:44:31.485Z,101326.00
2018-06-28T05:47:01.726Z,101335.00
2018-06-28T05:49:31.892Z,101324.00
2018-06-28T05:52:02.695Z,101325.00
2018-06-28T05:54:33.012Z,101330.00
2018-06-28T05:57:03.486Z,101346.00
2018-06-28T05:59:33.755Z,101334.00
2018-06-28T06:02:04.234Z,101326.00
2018-06-28T06:04:34.646Z,101331.00
2018-06-28T06:07:05.558Z,101336.00
2018-06-28T06:09:35.759Z,101342.00
2018-06-28T06:12:06.380Z,101349.00
2018-06-28T06:14:36.581Z,101355.00
2018-06-28T06:17:07.158Z,101352.00
2018-06-28T06:19:37.604Z,101361.00
2018-06-28T06:22:07.941Z,101347.00
2018-06-28T06:24:38.253Z,101357.00
2018-06-28T06:27:09.478Z,101360.00
2018-06-28T06:29:40.092Z,101346.00
2018-06-28T06:32:10.812Z,101342.00
2018-06-28T06:34:41.724Z,101346.00
2018-06-28T06:37:12.512Z,101355.00
2018-06-28T06:39:43.193Z,101360.00
2018-06-28T06:42:13.597Z,101361.00
2018-06-28T06:44:44.755Z,101363.00
2018-06-28T06:47:15.069Z,101364.00
2018-06-28T06:49:45.432Z,101366.00
2018-06-28T06:52:16.213Z,101369.00
2018-06-28T06:54:47.649Z,101372.00
2018-06-28T06:57:19.150Z,101366.00
2018-06-28T06:59:49.621Z,101366.00
2018-06-28T07:02:20.214Z,101367.00
2018-06-28T07:04:50.809Z,101364.00
2018-06-28T07:07:21.338Z,101356.00
2018-06-28T07:09:52.733Z,101349.00
2018-06-28T07:12:23.359Z,101355.00
2018-06-28T07:14:54.344Z,101350.00
2018-06-28T07:17:24.712Z,101362.00
2018-06-28T07:19:55.605Z,101356.00
2018-06-28T07:22:26.123Z,101356.00
2018-06-28T07:24:57.299Z,101362.00
2018-06-28T07:27:28.042Z,101362.00
2018-06-28T07:30:00.505Z,101361.00
2018-06-28T07:32:30.472Z,101366.00
2018-06-28T07:35:02.170Z,101356.00
2018-06-28T07:37:32.690Z,101356.00
2018-06-28T07:40:03.867Z,101358.00
2018-06-28T07:42:35.368Z,101356.00
2018-06-28T07:45:06.102Z,101360.00
2018-06-28T07:47:36.717Z,101357.00
2018-06-28T07:50:07.835Z,101368.00
2018-06-28T07:52:38.032Z,101358.00
2018-06-28T07:55:08.196Z,101356.00
2018-06-28T07:57:38.458Z,101372.00
2018-06-28T08:00:09.229Z,101361.00
2018-06-28T08:02:39.781Z,101363.00
2018-06-28T08:05:10.003Z,101362.00
2018-06-28T08:07:40.760Z,101367.00
2018-06-28T08:10:11.502Z,101368.00
2018-06-28T08:12:42.192Z,101366.00
2018-06-28T08:15:12.438Z,101372.00
2018-06-28T08:17:42.596Z,101376.00
2018-06-28T08:20:12.854Z,101375.00
2018-06-28T08:22:43.119Z,101372.00
2018-06-28T08:25:13.388Z,101376.00
2018-06-28T08:27:43.691Z,101366.00
2018-06-28T08:30:13.997Z,101371.00
2018-06-28T08:32:45.221Z,101368.00
2018-06-28T08:35:15.771Z,101363.00
2018-06-28T08:37:49.063Z,101358.00
2018-06-28T08:40:19.425Z,101349.00
2018-06-28T08:42:49.717Z,101344.00
2018-06-28T08:45:20.299Z,101347.00
2018-06-28T08:47:50.532Z,101345.00
2018-06-28T08:50:20.862Z,101346.00
2018-06-28T08:52:51.437Z,101345.00
2018-06-28T08:55:21.522Z,101339.00
2018-06-28T08:57:51.762Z,101330.00
2018-06-28T09:00:21.881Z,101320.00
2018-06-28T09:02:52.163Z,101321.00
2018-06-28T09:05:22.616Z,101318.00
2018-06-28T09:07:52.966Z,101325.00
2018-06-28T09:10:23.159Z,101327.00
2018-06-28T09:12:53.348Z,101339.00
2018-06-28T09:15:23.751Z,101328.00
2018-06-28T09:17:53.829Z,101332.00
2018-06-28T09:20:24.013Z,101327.00
2018-06-28T09:22:54.592Z,101327.00
2018-06-28T09:25:24.805Z,101317.00
2018-06-28T09:27:55.041Z,101322.00
2018-06-28T09:30:25.270Z,101317.00
2018-06-28T09:32:55.585Z,101323.00
2018-06-28T09:35:25.689Z,101322.00
2018-06-28T09:37:55.852Z,101320.00
2018-06-28T09:40:26.157Z,101317.00
2018-06-28T09:42:56.542Z,101326.00
2018-06-28T09:45:26.989Z,101322.00
2018-06-28T09:47:57.140Z,101314.00
2018-06-28T09:50:28.336Z,101315.00
2018-06-28T09:52:59.053Z,101309.00
2018-06-28T09:55:29.665Z,101309.00
2018-06-28T09:58:01.061Z,101317.00
2018-06-28T10:00:36.709Z,101311.00
2018-06-28T10:03:07.038Z,101309.00
2018-06-28T10:05:37.881Z,101310.00
2018-06-28T10:08:08.832Z,101313.00
2018-06-28T10:10:39.633Z,101305.00
2018-06-28T10:13:09.849Z,101296.00
2018-06-28T10:15:40.615Z,101302.00
2018-06-28T10:18:11.608Z,101302.00
2018-06-28T10:20:42.510Z,101300.00
2018-06-28T10:23:14.757Z,101301.00
2018-06-28T10:25:45.933Z,101299.00
2018-06-28T10:28:17.905Z,101287.00
2018-06-28T10:30:48.754Z,101294.00
2018-06-28T10:33:20.090Z,101284.00
2018-06-28T10:35:50.553Z,101294.00
2018-06-28T10:38:21.361Z,101284.00
2018-06-28T10:40:52.169Z,101281.00
2018-06-28T10:43:22.577Z,101281.00
2018-06-28T10:45:52.783Z,101281.00
2018-06-28T10:48:23.975Z,101279.00
2018-06-28T10:50:54.292Z,101279.00
2018-06-28T10:53:24.448Z,101287.00
2018-06-28T10:55:54.998Z,101289.00
2018-06-28T10:58:25.168Z,101279.00
2018-06-28T11:00:55.268Z,101281.00
2018-06-28T11:03:25.786Z,101279.00
2018-06-28T11:05:56.303Z,101275.00
2018-06-28T11:08:27.240Z,101265.00
2018-06-28T11:10:57.968Z,101269.00
2018-06-28T11:13:28.785Z,101270.00
2018-06-28T11:16:00.895Z,101272.00
2018-06-28T11:18:31.384Z,101265.00
2018-06-28T11:21:02.739Z,101271.00
2018-06-28T11:23:34.103Z,101264.00
2018-06-28T11:26:04.710Z,101262.00
2018-06-28T11:28:35.316Z,101261.00
2018-06-28T11:31:05.617Z,101269.00
2018-06-28T11:33:36.033Z,101259.00
2018-06-28T11:36:06.624Z,101263.00
2018-06-28T11:38:37.092Z,101256.00
2018-06-28T11:41:08.028Z,101252.00
2018-06-28T11:43:39.695Z,101261.00
2018-06-28T11:46:10.022Z,101252.00
2018-06-28T11:48:40.568Z,101243.00
2018-06-28T11:51:11.020Z,101241.00
2018-06-28T11:53:41.808Z,101251.00
2018-06-28T11:56:12.205Z,101239.00
2018-06-28T11:58:42.567Z,101250.00
2018-06-28T12:01:12.747Z,101251.00
2018-06-28T12:03:43.217Z,101248.00
2018-06-28T12:06:13.833Z,101252.00
2018-06-28T12:08:44.293Z,101253.00
2018-06-28T12:11:14.551Z,101250.00
2018-06-28T12:13:44.841Z,101246.00
2018-06-28T12:16:14.937Z,101246.00
2018-06-28T12:18:45.736Z,101248.00
2018-06-28T12:21:16.779Z,101244.00
2018-06-28T12:23:47.074Z,101241.00
2018-06-28T12:26:17.840Z,101235.00
2018-06-28T12:28:48.638Z,101236.00
2018-06-28T12:31:19.375Z,101231.00
2018-06-28T12:33:49.668Z,101238.00
2018-06-28T12:36:20.012Z,101231.00
2018-06-28T12:38:50.411Z,101229.00
2018-06-28T12:41:21.593Z,101232.00
2018-06-28T12:43:51.605Z,101240.00
2018-06-28T12:46:32.410Z,101223.00
2018-06-28T12:49:02.929Z,101213.00
2018-06-28T12:51:49.946Z,101215.00
2018-06-28T12:54:26.803Z,101211.00
2018-06-28T12:56:57.228Z,101212.00
2018-06-28T12:59:27.489Z,101206.00
2018-06-28T13:01:57.673Z,101216.00
2018-06-28T13:04:27.911Z,101209.00
2018-06-28T13:06:59.193Z,101200.00
2018-06-28T13:09:29.256Z,101214.00
2018-06-28T13:12:00.333Z,101203.00
2018-06-28T13:14:30.937Z,101198.00
2018-06-28T13:17:02.207Z,101199.00
2018-06-28T13:19:32.504Z,101184.00
2018-06-28T13:22:04.140Z,101191.00
2018-06-28T13:24:34.577Z,101190.00
2018-06-28T13:27:05.238Z,101194.00
2018-06-28T13:29:35.979Z,101181.00
2018-06-28T13:32:06.278Z,101190.00
2018-06-28T13:34:36.808Z,101182.00
2018-06-28T13:37:07.516Z,101181.00
2018-06-28T13:39:38.937Z,101169.00
2018-06-28T13:42:10.025Z,101169.00
2018-06-28T13:44:40.766Z,101167.00
2018-06-28T13:47:11.763Z,101169.00
2018-06-28T13:49:42.335Z,101162.00
2018-06-28T13:52:12.607Z,101152.00
2018-06-28T13:54:43.364Z,101147.00
2018-06-28T13:57:14.519Z,101137.00
2018-06-28T13:59:45.607Z,101137.00
2018-06-28T14:02:16.142Z,101127.00
2018-06-28T14:04:46.718Z,101137.00
2018-06-28T14:07:16.935Z,101143.00
2018-06-28T14:09:47.184Z,101132.00
2018-06-28T14:12:18.186Z,101131.00
2018-06-28T14:14:48.763Z,101126.00
2018-06-28T14:17:20.501Z,101126.00
2018-06-28T14:19:51.012Z,101126.00
2018-06-28T14:22:21.844Z,101132.00
2018-06-28T14:24:52.686Z,101136.00
2018-06-28T14:27:23.584Z,101131.00
2018-06-28T14:29:54.057Z,101133.00
2018-06-28T14:32:24.520Z,101129.00
2018-06-28T14:34:55.122Z,101123.00
2018-06-28T14:37:26.314Z,101133.00
2018-06-28T14:39:57.174Z,101133.00
2018-06-28T14:42:28.005Z,101134.00
2018-06-28T14:44:58.976Z,101135.00
2018-06-28T14:47:29.388Z,101131.00
2018-06-28T14:49:59.978Z,101141.00
2018-06-28T14:52:30.979Z,101134.00
2018-06-28T14:55:02.009Z,101133.00
2018-06-28T14:57:32.596Z,101129.00
2018-06-28T15:00:03.835Z,101125.00
2018-06-28T15:02:34.372Z,101131.00
2018-06-28T15:05:05.453Z,101127.00
2018-06-28T15:07:36.277Z,101142.00
2018-06-28T15:10:07.057Z,101125.00
2018-06-28T15:12:37.022Z,101126.00
2018-06-28T15:15:07.626Z,101112.00
2018-06-28T15:17:38.416Z,101120.00
2018-06-28T15:20:09.278Z,101113.00
2018-06-28T15:22:41.297Z,101141.00
2018-06-28T15:25:12.892Z,101122.00
2018-06-28T15:27:43.769Z,101114.00
2018-06-28T15:30:14.002Z,101116.00
2018-06-28T15:32:44.538Z,101112.00
2018-06-28T15:35:15.581Z,101107.00
2018-06-28T15:37:46.418Z,101111.00
2018-06-28T15:40:16.815Z,101111.00
2018-06-28T15:42:47.046Z,101115.00
2018-06-28T15:45:17.686Z,101112.00
2018-06-28T15:47:48.712Z,101101.00
2018-06-28T15:50:19.736Z,101096.00
2018-06-28T15:52:49.957Z,101099.00
2018-06-28T15:55:20.479Z,101094.00
2018-06-28T15:57:50.638Z,101107.00
2018-06-28T16:00:20.920Z,101099.00
2018-06-28T16:02:51.458Z,101100.00
2018-06-28T16:05:22.299Z,101095.00
2018-06-28T16:07:52.633Z,101103.00
2018-06-28T16:10:22.953Z,101091.00
2018-06-28T16:12:54.164Z,101089.00
2018-06-28T16:15:24.589Z,101085.00
2018-06-28T16:17:55.226Z,101090.00
2018-06-28T16:20:26.287Z,101079.00
2018-06-28T16:22:57.301Z,101084.00
2018-06-28T16:25:27.489Z,101075.00
2018-06-28T16:27:57.745Z,101069.00
2018-06-28T16:30:28.227Z,101080.00
2018-06-28T16:32:58.596Z,101069.00
2018-06-28T16:35:29.472Z,101070.00
2018-06-28T16:37:59.901Z,101071.00
2018-06-28T16:40:31.141Z,101067.00
2018-06-28T16:43:01.684Z,101071.00
2018-06-28T16:45:32.730Z,101058.00
2018-06-28T16:48:03.775Z,101057.00
2018-06-28T16:50:34.868Z,101067.00
2018-06-28T16:53:06.009Z,101064.00
2018-06-28T16:55:36.346Z,101063.00
2018-06-28T16:58:07.521Z,101056.00
2018-06-28T17:00:39.411Z,101057.00
2018-06-28T17:03:14.072Z,101054.00
2018-06-28T17:05:44.859Z,101052.00
2018-06-28T17:08:14.974Z,101050.00
2018-06-28T17:10:45.411Z,101050.00
2018-06-28T17:13:15.774Z,101049.00
2018-06-28T17:15:46.562Z,101039.00
2018-06-28T17:18:17.277Z,101039.00
2018-06-28T17:20:47.850Z,101009.00
2018-06-28T17:23:18.690Z,101038.00
2018-06-28T17:25:49.736Z,101037.00
2018-06-28T17:28:20.357Z,101032.00
2018-06-28T17:30:51.317Z,101036.00
2018-06-28T17:33:21.655Z,101034.00
2018-06-28T17:35:52.289Z,101035.00
2018-06-28T17:38:29.719Z,101030.00
2018-06-28T17:41:00.003Z,101030.00
2018-06-28T17:43:30.321Z,101039.00
2018-06-28T17:46:00.650Z,101029.00
2018-06-28T17:48:31.133Z,101034.00
2018-06-28T17:51:01.742Z,101028.00
2018-06-28T17:53:32.900Z,101037.00
2018-06-28T17:56:03.034Z,101029.00
2018-06-28T17:58:34.335Z,101047.00
2018-06-28T18:01:06.947Z,101037.00
2018-06-28T18:03:39.189Z,101033.00
2018-06-28T18:06:11.058Z,101041.00
2018-06-28T18:08:44.432Z,101039.00
2018-06-28T18:11:16.954Z,101040.00
2018-06-28T18:13:47.604Z,101037.00
2018-06-28T18:16:18.050Z,101042.00
2018-06-28T18:18:48.476Z,101039.00
2018-06-28T18:21:19.164Z,101038.00
2018-06-28T18:23:50.326Z,101035.00
2018-06-28T18:26:20.536Z,101036.00
2018-06-28T18:28:50.702Z,101043.00
2018-06-28T18:31:21.168Z,101040.00
2018-06-28T18:33:51.799Z,101041.00
2018-06-28T18:36:22.041Z,101044.00
2018-06-28T18:38:52.727Z,101046.00
2018-06-28T18:41:23.332Z,101049.00
2018-06-28T18:43:54.453Z,101051.00
2018-06-28T18:46:24.856Z,101053.00
2018-06-28T18:48:55.233Z,101055.00
2018-06-28T18:51:26.393Z,101051.00
2018-06-28T18:53:56.973Z,101063.00
2018-06-28T18:56:28.158Z,101059.00
2018-06-28T18:58:58.773Z,101062.00
2018-06-28T19:01:28.929Z,101060.00
2018-06-28T19:03:59.275Z,101059.00
2018-06-28T19:06:31.216Z,101060.00
2018-06-28T19:09:01.328Z,101076.00
2018-06-28T19:11:31.487Z,101073.00
2018-06-28T19:14:06.994Z,101058.00
2018-06-28T19:16:42.677Z,101065.00
2018-06-28T19:19:13.250Z,101066.00
2018-06-28T19:21:48.668Z,101059.00
2018-06-28T19:24:18.879Z,101069.00
2018-06-28T19:26:49.499Z,101065.00
2018-06-28T19:29:24.847Z,101068.00
2018-06-28T19:32:00.235Z,101063.00
2018-06-28T19:34:31.852Z,101072.00
2018-06-28T19:37:02.328Z,101064.00
2018-06-28T19:39:37.768Z,101071.00
2018-06-28T19:42:13.414Z,101074.00
2018-06-28T19:44:43.629Z,101076.00
2018-06-28T19:47:14.118Z,101073.00
2018-06-28T19:49:49.435Z,101077.00
2018-06-28T19:52:24.981Z,101079.00
2018-06-28T19:54:55.405Z,101081.00
2018-06-28T19:57:25.883Z,101074.00
2018-06-28T19:59:56.498Z,101081.00
2018-06-28T20:02:32.033Z,101079.00
2018-06-28T20:05:02.121Z,101076.00
2018-06-28T20:07:32.920Z,101086.00
2018-06-28T20:10:03.482Z,101082.00
2018-06-28T20:12:38.881Z,101088.00
2018-06-28T20:15:14.306Z,101088.00
2018-06-28T20:18:01.096Z,101100.00
2018-06-28T20:20:34.526Z,101101.00
2018-06-28T20:23:05.454Z,101108.00
2018-06-28T20:25:35.853Z,101113.00
2018-06-28T20:28:11.541Z,101116.00
2018-06-28T20:30:46.934Z,101114.00
2018-06-28T20:33:23.135Z,101116.00
2018-06-28T20:35:53.387Z,101116.00
2018-06-28T20:38:23.655Z,101120.00
2018-06-28T20:40:54.930Z,101124.00
2018-06-28T20:43:26.218Z,101127.00
2018-06-28T20:45:56.927Z,101114.00
2018-06-28T20:48:28.490Z,101125.00
2018-06-28T20:50:59.204Z,101119.00
2018-06-28T20:53:34.208Z,101127.00
2018-06-28T20:56:05.059Z,101126.00
2018-06-28T20:58:37.449Z,101131.00
2018-06-28T21:01:12.809Z,101133.00
2018-06-28T21:03:43.036Z,101132.00
2018-06-28T21:06:13.407Z,101130.00
2018-06-28T21:08:44.239Z,101124.00
2018-06-28T21:11:14.840Z,101128.00
2018-06-28T21:13:45.451Z,101124.00
2018-06-28T21:16:16.862Z,101115.00
2018-06-28T21:18:47.965Z,101127.00
2018-06-28T21:21:19.154Z,101123.00
2018-06-28T21:23:50.181Z,101128.00
2018-06-28T21:26:20.568Z,101122.00
2018-06-28T21:28:52.064Z,101125.00
2018-06-28T21:31:22.129Z,101131.00
2018-06-28T21:33:52.762Z,101126.00
2018-06-28T21:36:22.970Z,101129.00
2018-06-28T21:38:53.317Z,101133.00
2018-06-28T21:41:24.141Z,101133.00
2018-06-28T21:43:54.286Z,101132.00
2018-06-28T21:46:24.445Z,101128.00
2018-06-28T21:48:56.239Z,101130.00
2018-06-28T21:51:26.616Z,101139.00
2018-06-28T21:53:57.382Z,101125.00
2018-06-28T21:56:27.615Z,101133.00
2018-06-28T21:58:58.309Z,101128.00
2018-06-28T22:01:29.198Z,101137.00
2018-06-28T22:03:59.578Z,101128.00
2018-06-28T22:06:29.789Z,101131.00
2018-06-28T22:09:00.077Z,101135.00
2018-06-28T22:11:30.602Z,101130.00
2018-06-28T22:14:00.930Z,101131.00
2018-06-28T22:16:31.021Z,101131.00
2018-06-28T22:19:01.217Z,101126.00
2018-06-28T22:21:31.450Z,101126.00
2018-06-28T22:24:02.363Z,101119.00
2018-06-28T22:26:32.801Z,101124.00
2018-06-28T22:29:05.282Z,101130.00
2018-06-28T22:31:37.654Z,101136.00
2018-06-28T22:34:08.500Z,101136.00
2018-06-28T22:36:38.873Z,101143.00
2018-06-28T22:39:12.033Z,101148.00
2018-06-28T22:41:43.126Z,101148.00
2018-06-28T22:44:13.943Z,101151.00
2018-06-28T22:46:44.343Z,101151.00
2018-06-28T22:49:14.366Z,101154.00
2018-06-28T22:51:44.560Z,101155.00
2018-06-28T22:54:14.978Z,101162.00
2018-06-28T22:56:45.112Z,101163.00
2018-06-28T22:59:15.341Z,101162.00
2018-06-28T23:01:45.524Z,101156.00
2018-06-28T23:04:15.641Z,101162.00
2018-06-28T23:06:45.792Z,101161.00
2018-06-28T23:09:15.977Z,101164.00
2018-06-28T23:11:46.341Z,101164.00
2018-06-28T23:14:16.757Z,101164.00
2018-06-28T23:16:46.945Z,101161.00
2018-06-28T23:19:17.080Z,101166.00
2018-06-28T23:21:47.279Z,101162.00
2018-06-28T23:24:17.331Z,101172.00
2018-06-28T23:26:47.901Z,101170.00
2018-06-28T23:29:17.863Z,101176.00
2018-06-28T23:31:48.443Z,101176.00
2018-06-28T23:34:19.021Z,101179.00
2018-06-28T23:36:49.634Z,101181.00
2018-06-28T23:39:19.773Z,101171.00
2018-06-28T23:41:50.471Z,101178.00
2018-06-28T23:44:27.584Z,101173.00
2018-06-28T23:46:57.763Z,101180.00
2018-06-28T23:49:28.112Z,101179.00
2018-06-28T23:51:58.290Z,101177.00
2018-06-28T23:54:28.874Z,101184.00
2018-06-28T23:56:59.068Z,101178.00
2018-06-28T23:59:29.333Z,101183.00
